Time;durP1;ratioP1;P1;durP2;ratioP2;P2;SDS_P1;SDS_P2;PMS_P1;PMS_P2;Temp;Humidity;BMP_temperature;BMP_pressure;BME280_temperature;BME280_humidity;BME280_pressure;Samples;Min_cycle;Max_cycle;Signal;HPM_P1;HPM_P2
2022/02/13 00:01:48;;;;;;;;;;;;;;;20.87;35.17;101098.38;7288790;19;151616;-50
2022/02/13 00:04:15;;;;;;;;;;;;;;;20.85;34.80;101095.84;7283834;19;154071;-50
2022/02/13 00:06:43;;;;;;;;;;;;;;;20.84;34.84;101088.59;7285563;19;152231;-50
2022/02/13 00:09:11;;;;;;;;;;;;;;;20.83;35.13;101086.09;7281930;19;153368;-50
2022/02/13 00:11:38;;;;;;;;;;;;;;;20.80;35.11;101084.72;7282242;19;153358;-50
2022/02/13 00:14:06;;;;;;;;;;;;;;;20.80;34.86;101081.09;7281118;19;152028;-50
2022/02/13 00:16:35;;;;;;;;;;;;;;;20.78;35.17;101080.56;7282080;19;153448;-50
2022/02/13 00:19:02;;;;;;;;;;;;;;;20.77;34.92;101076.06;7283345;19;154788;-50
2022/02/13 00:21:50;;;;;;;;;;;;;;;20.76;35.00;101077.22;7285001;19;151857;-49
2022/02/13 00:24:17;;;;;;;;;;;;;;;20.74;35.09;101073.88;7289596;19;152724;-51
2022/02/13 00:26:44;;;;;;;;;;;;;;;20.73;35.36;101069.41;7284809;19;151803;-50
2022/02/13 00:29:12;;;;;;;;;;;;;;;20.72;35.45;101078.97;7284080;19;153625;-52
2022/02/13 00:31:40;;;;;;;;;;;;;;;20.69;35.48;101074.81;7282343;19;153379;-50
2022/02/13 00:34:07;;;;;;;;;;;;;;;20.68;35.60;101058.25;7282066;19;151924;-50
2022/02/13 00:36:34;;;;;;;;;;;;;;;20.67;35.38;101060.22;7282977;19;152297;-50
2022/02/13 00:39:01;;;;;;;;;;;;;;;20.65;35.69;101061.69;7282550;19;154262;-50
2022/02/13 00:41:29;;;;;;;;;;;;;;;20.63;35.72;101053.56;7279449;19;152475;-50
2022/02/13 00:43:57;;;;;;;;;;;;;;;20.61;35.43;101050.25;7283522;19;152521;-50
2022/02/13 00:46:25;;;;;;;;;;;;;;;20.58;35.49;101050.03;7289589;19;154166;-50
2022/02/13 00:48:52;;;;;;;;;;;;;;;20.56;35.83;101053.13;7282844;19;152960;-50
2022/02/13 00:51:19;;;;;;;;;;;;;;;20.53;35.59;101042.53;7281797;19;154463;-50
2022/02/13 00:53:46;;;;;;;;;;;;;;;20.52;36.12;101034.41;7281061;19;152083;-50
2022/02/13 00:56:14;;;;;;;;;;;;;;;20.49;35.76;101033.03;7283530;19;153764;-50
2022/02/13 00:58:41;;;;;;;;;;;;;;;20.48;36.11;101025.78;7280299;19;154162;-49
2022/02/13 01:01:08;;;;;;;;;;;;;;;20.45;36.05;101022.72;7283437;19;151794;-50
2022/02/13 01:03:35;;;;;;;;;;;;;;;20.44;36.01;101021.06;7284411;19;152797;-50
2022/02/13 01:06:03;;;;;;;;;;;;;;;20.39;36.06;101020.03;7282640;19;153560;-50
2022/02/13 01:08:30;;;;;;;;;;;;;;;20.37;36.54;101011.06;7289218;19;152042;-50
2022/02/13 01:10:57;;;;;;;;;;;;;;;20.33;36.21;101009.16;7280581;19;154291;-50
2022/02/13 01:13:28;;;;;;;;;;;;;;;20.30;36.36;100996.59;7282004;19;151788;-49
2022/02/13 01:15:55;;;;;;;;;;;;;;;20.28;36.32;100995.19;7283133;19;152631;-50
2022/02/13 01:18:22;;;;;;;;;;;;;;;20.25;36.36;100993.84;7282868;19;153225;-50
2022/02/13 01:20:49;;;;;;;;;;;;;;;20.23;36.72;100989.66;7285068;19;152006;-50
2022/02/13 01:23:16;;;;;;;;;;;;;;;20.20;36.80;100988.31;7283724;19;152835;-50
2022/02/13 01:25:43;;;;;;;;;;;;;;;20.18;36.53;100989.75;7283432;19;153924;-49
2022/02/13 01:28:11;;;;;;;;;;;;;;;20.20;36.85;100988.31;7281732;19;152146;-50
2022/02/13 01:30:38;;;;;;;;;;;;;;;20.18;36.78;100981.31;7289811;19;153176;-50
2022/02/13 01:33:05;;;;;;;;;;;;;;;20.15;37.32;100979.97;7285127;19;152431;-50
2022/02/13 01:35:32;;;;;;;;;;;;;;;20.11;37.55;100983.69;7284099;19;152623;-50
2022/02/13 01:37:59;;;;;;;;;;;;;;;20.06;37.45;100967.78;7284365;19;153533;-49
2022/02/13 01:40:26;;;;;;;;;;;;;;;20.03;37.69;100967.56;7283586;19;154172;-49
2022/02/13 01:42:53;;;;;;;;;;;;;;;20.02;37.59;100968.69;7281156;19;152919;-50
2022/02/13 01:45:20;;;;;;;;;;;;;;;20.00;37.93;100957.78;7280468;19;154354;-49
2022/02/13 01:47:47;;;;;;;;;;;;;;;19.95;38.00;100953.06;7282618;19;152143;-50
2022/02/13 01:50:14;;;;;;;;;;;;;;;19.93;37.77;100952.56;7285213;19;152807;-50
2022/02/13 01:52:47;;;;;;;;;;;;;;;19.91;37.80;100948.38;7291403;19;154029;-50
2022/02/13 01:55:14;;;;;;;;;;;;;;;19.87;38.15;100936.94;7282158;19;153338;-50
2022/02/13 01:57:41;;;;;;;;;;;;;;;19.86;38.16;100932.47;7283792;19;152992;-49
2022/02/13 02:00:08;;;;;;;;;;;;;;;19.87;38.19;100924.88;7283879;19;151749;-50
2022/02/13 02:02:35;;;;;;;;;;;;;;;19.86;38.05;100935.28;7282176;19;153501;-49
2022/02/13 02:05:03;;;;;;;;;;;;;;;19.82;38.49;100924.97;7281879;19;153925;-49
2022/02/13 02:07:30;;;;;;;;;;;;;;;19.80;38.54;100916.88;7282652;19;151914;-49
2022/02/13 02:09:57;;;;;;;;;;;;;;;19.78;38.26;100907.09;7281117;19;151633;-49
2022/02/13 02:12:25;;;;;;;;;;;;;;;19.76;38.52;100901.78;7290669;19;152232;-49
2022/02/13 02:14:52;;;;;;;;;;;;;;;19.73;38.25;100898.75;7278984;19;152076;-49
2022/02/13 02:17:19;;;;;;;;;;;;;;;19.69;38.53;100897.72;7280575;19;154652;-50
2022/02/13 02:19:46;;;;;;;;;;;;;;;19.67;38.34;100897.19;7283080;19;151643;-49
2022/02/13 02:22:14;;;;;;;;;;;;;;;19.62;38.37;100900.06;7283889;19;153908;-49
2022/02/13 02:24:41;;;;;;;;;;;;;;;19.62;38.64;100888.84;7283736;19;153623;-49
2022/02/13 02:27:08;;;;;;;;;;;;;;;19.59;38.72;100886.66;7289539;19;152135;-50
2022/02/13 02:29:35;;;;;;;;;;;;;;;19.57;38.70;100880.53;7289588;19;151679;-50
2022/02/13 02:32:03;;;;;;;;;;;;;;;19.55;38.84;100878.00;7287233;19;154513;-49
2022/02/13 02:34:30;;;;;;;;;;;;;;;19.52;38.75;100879.47;7296366;19;152088;-49
2022/02/13 02:36:57;;;;;;;;;;;;;;;19.52;38.99;100864.63;7287254;19;153553;-49
2022/02/13 02:39:24;;;;;;;;;;;;;;;19.50;38.93;100855.66;7288588;19;152458;-50
2022/02/13 02:41:51;;;;;;;;;;;;;;;19.49;39.02;100859.59;7286043;19;152706;-50
2022/02/13 02:44:18;;;;;;;;;;;;;;;19.46;39.06;100860.22;7280725;19;154677;-49
2022/02/13 02:46:45;;;;;;;;;;;;;;;19.43;39.29;100858.88;7288711;19;152292;-49
2022/02/13 02:49:12;;;;;;;;;;;;;;;19.42;39.35;100861.94;7287257;19;152010;-49
2022/02/13 02:51:39;;;;;;;;;;;;;;;19.41;39.26;100874.28;7287749;19;152734;-49
2022/02/13 02:54:06;;;;;;;;;;;;;;;19.39;39.39;100862.56;7288374;19;151889;-50
2022/02/13 02:56:33;;;;;;;;;;;;;;;19.37;39.83;100848.00;7295927;19;152736;-49
2022/02/13 02:59:00;;;;;;;;;;;;;;;19.33;39.45;100847.78;7288491;19;151767;-49
2022/02/13 03:01:27;;;;;;;;;;;;;;;19.33;39.55;100835.75;7286923;19;153261;-49
2022/02/13 03:03:55;;;;;;;;;;;;;;;19.31;39.97;100835.19;7283937;19;152929;-50
2022/02/13 03:06:22;;;;;;;;;;;;;;;19.29;39.81;100835.50;7289149;19;152125;-49
2022/02/13 03:08:49;;;;;;;;;;;;;;;19.28;40.07;100831.03;7288290;19;153254;-49
2022/02/13 03:11:16;;;;;;;;;;;;;;;19.28;39.78;100821.81;7288394;19;153555;-49
2022/02/13 03:13:44;;;;;;;;;;;;;;;19.25;39.86;100817.66;7286681;19;151755;-49
2022/02/13 03:16:11;;;;;;;;;;;;;;;19.26;39.82;100821.28;7290211;19;152892;-49
2022/02/13 03:18:38;;;;;;;;;;;;;;;19.23;40.19;100816.28;7294029;19;153727;-49
2022/02/13 03:21:05;;;;;;;;;;;;;;;19.22;39.89;100817.41;7286466;19;153401;-50
2022/02/13 03:23:32;;;;;;;;;;;;;;;19.19;40.13;100801.22;7284379;19;153389;-49
2022/02/13 03:26:01;;;;;;;;;;;;;;;19.17;40.06;100804.31;7286760;19;152438;-50
2022/02/13 03:28:28;;;;;;;;;;;;;;;19.14;40.56;100793.72;7285541;19;152806;-50
2022/02/13 03:30:55;;;;;;;;;;;;;;;19.13;40.46;100796.81;7285880;19;152789;-49
2022/02/13 03:33:22;;;;;;;;;;;;;;;19.10;40.52;100796.31;7288040;19;151660;-49
2022/02/13 03:35:49;;;;;;;;;;;;;;;19.09;40.26;100785.38;7283478;19;152772;-49
2022/02/13 03:38:16;;;;;;;;;;;;;;;19.06;40.55;100780.41;7282085;19;154300;-49
2022/02/13 03:40:44;;;;;;;;;;;;;;;19.05;40.42;100775.94;7291693;19;153182;-49
2022/02/13 03:43:11;;;;;;;;;;;;;;;19.02;40.69;100766.19;7283171;19;153565;-49
2022/02/13 03:45:38;;;;;;;;;;;;;;;19.02;40.43;100763.38;7281330;19;153106;-49
2022/02/13 03:48:07;;;;;;;;;;;;;;;19.00;40.74;100759.22;7286858;19;153406;-49
2022/02/13 03:50:34;;;;;;;;;;;;;;;18.99;40.91;100757.53;7285071;19;152585;-50
2022/02/13 03:53:01;;;;;;;;;;;;;;;18.95;40.75;100751.72;7286863;19;151740;-50
2022/02/13 03:55:28;;;;;;;;;;;;;;;18.94;41.11;100752.84;7284728;19;153655;-49
2022/02/13 03:57:55;;;;;;;;;;;;;;;18.93;41.14;100748.41;7285568;19;153756;-50
2022/02/13 04:00:22;;;;;;;;;;;;;;;18.92;40.95;100743.09;7283283;19;152031;-49
2022/02/13 04:02:55;;;;;;;;;;;;;;;18.91;41.26;100741.44;7292533;19;153231;-49
2022/02/13 04:05:23;;;;;;;;;;;;;;;18.90;41.20;100739.75;7286063;19;151924;-49
2022/02/13 04:07:50;;;;;;;;;;;;;;;18.88;41.14;100742.88;7285828;19;153730;-49
2022/02/13 04:10:17;;;;;;;;;;;;;;;18.88;41.50;100742.88;7282484;19;154183;-49
2022/02/13 04:12:45;;;;;;;;;;;;;;;18.88;41.25;100739.25;7286550;19;151876;-49
2022/02/13 04:15:12;;;;;;;;;;;;;;;18.84;41.57;100732.59;7282924;19;152888;-49
2022/02/13 04:17:39;;;;;;;;;;;;;;;18.83;41.38;100733.72;7284384;19;153859;-50
2022/02/13 04:20:07;;;;;;;;;;;;;;;18.81;41.21;100733.16;7283504;19;151620;-50
2022/02/13 04:22:34;;;;;;;;;;;;;;;18.81;41.27;100725.59;7292180;19;153542;-49
2022/02/13 04:25:01;;;;;;;;;;;;;;;18.79;41.54;100735.47;7286108;19;153179;-50
2022/02/13 04:27:28;;;;;;;;;;;;;;;18.79;41.26;100739.09;7285596;19;152232;-49
2022/02/13 04:29:55;;;;;;;;;;;;;;;18.76;41.43;100716.47;7282459;19;153866;-49
2022/02/13 04:32:22;;;;;;;;;;;;;;;18.75;41.67;100712.00;7285866;19;152460;-50
2022/02/13 04:34:49;;;;;;;;;;;;;;;18.73;41.79;100714.25;7283215;19;153415;-50
2022/02/13 04:37:16;;;;;;;;;;;;;;;18.71;41.72;100708.16;7283785;19;152562;-49
2022/02/13 04:39:43;;;;;;;;;;;;;;;18.69;41.82;100714.03;7281901;19;152743;-49
2022/02/13 04:42:11;;;;;;;;;;;;;;;18.65;41.71;100699.81;7283089;19;152381;-50
2022/02/13 04:44:38;;;;;;;;;;;;;;;18.65;41.82;100707.38;7285700;19;155457;-49
2022/02/13 04:47:05;;;;;;;;;;;;;;;18.63;41.61;100699.28;7280159;19;153469;-49
2022/02/13 04:49:32;;;;;;;;;;;;;;;18.61;41.57;100700.72;7284194;19;153579;-49
2022/02/13 04:51:59;;;;;;;;;;;;;;;18.59;41.68;100701.03;7285235;19;152259;-49
2022/02/13 04:54:26;;;;;;;;;;;;;;;18.58;41.95;100696.56;7282846;19;154365;-49
2022/02/13 04:56:53;;;;;;;;;;;;;;;18.56;41.97;100687.66;7281896;19;154122;-49
2022/02/13 04:59:20;;;;;;;;;;;;;;;18.56;41.79;100690.44;7283441;19;152229;-49
2022/02/13 05:01:47;;;;;;;;;;;;;;;18.55;42.11;100683.19;7284245;19;153567;-50
2022/02/13 05:04:16;;;;;;;;;;;;;;;18.52;41.98;100672.56;7283027;19;152165;-50
2022/02/13 05:06:43;;;;;;;;;;;;;;;18.52;41.84;100664.19;7293029;19;152049;-49
2022/02/13 05:09:10;;;;;;;;;;;;;;;18.49;41.86;100650.78;7281782;19;153852;-49
2022/02/13 05:11:37;;;;;;;;;;;;;;;18.49;42.08;100649.94;7283380;19;152248;-49
2022/02/13 05:14:05;;;;;;;;;;;;;;;18.46;42.29;100634.59;7283309;19;152804;-49
2022/02/13 05:16:32;;;;;;;;;;;;;;;18.46;42.02;100631.81;7279085;19;154613;-50
2022/02/13 05:18:59;;;;;;;;;;;;;;;18.45;42.00;100623.69;7284493;19;152249;-49
2022/02/13 05:21:26;;;;;;;;;;;;;;;18.44;41.94;100611.69;7284890;19;152838;-50
2022/02/13 05:23:53;;;;;;;;;;;;;;;18.43;42.30;100612.00;7280931;19;152691;-50
2022/02/13 05:26:20;;;;;;;;;;;;;;;18.41;42.34;100606.69;7283936;19;152345;-49
2022/02/13 05:28:47;;;;;;;;;;;;;;;18.40;42.12;100609.78;7288609;19;152201;-49
2022/02/13 05:31:16;;;;;;;;;;;;;;;18.38;42.17;100600.88;7283963;19;152043;-50
2022/02/13 05:33:44;;;;;;;;;;;;;;;18.37;42.28;100600.06;7282111;19;153425;-51
2022/02/13 05:36:12;;;;;;;;;;;;;;;18.37;42.37;100596.41;7280691;19;152389;-51
2022/02/13 05:38:39;;;;;;;;;;;;;;;18.33;42.32;100589.78;7283527;19;151806;-49
2022/02/13 05:41:06;;;;;;;;;;;;;;;18.33;42.65;100595.38;7284312;19;153747;-55
2022/02/13 05:43:33;;;;;;;;;;;;;;;18.31;42.17;100580.84;7280727;19;152676;-56
2022/02/13 05:46:00;;;;;;;;;;;;;;;18.30;42.44;100579.19;7277431;19;151812;-50
2022/02/13 05:48:27;;;;;;;;;;;;;;;18.27;42.70;100575.03;7278802;19;153887;-50
2022/02/13 05:50:56;;;;;;;;;;;;;;;18.28;42.32;100578.66;7289035;19;154314;-50
2022/02/13 05:53:23;;;;;;;;;;;;;;;18.27;42.55;100568.59;7281780;19;154254;-50
2022/02/13 05:55:50;;;;;;;;;;;;;;;18.23;42.40;100569.22;7279706;19;154359;-49
2022/02/13 05:58:17;;;;;;;;;;;;;;;18.22;42.55;100569.50;7282880;19;152625;-50
2022/02/13 06:00:45;;;;;;;;;;;;;;;18.22;42.70;100566.72;7282955;19;154514;-49
2022/02/13 06:03:12;;;;;;;;;;;;;;;18.18;42.61;100565.66;7281554;19;153428;-50
2022/02/13 06:05:39;;;;;;;;;;;;;;;18.16;42.68;100573.53;7281568;19;151911;-50
2022/02/13 06:08:06;;;;;;;;;;;;;;;18.15;42.75;100567.09;7282043;19;152199;-50
2022/02/13 06:10:33;;;;;;;;;;;;;;;18.14;42.70;100568.22;7275908;19;154516;-50
2022/02/13 06:13:00;;;;;;;;;;;;;;;18.13;42.63;100555.38;7286656;19;152385;-50
2022/02/13 06:15:27;;;;;;;;;;;;;;;18.13;42.85;100562.94;7280024;19;153986;-50
2022/02/13 06:17:54;;;;;;;;;;;;;;;18.12;42.64;100555.69;7282978;19;152131;-50
2022/02/13 06:20:21;;;;;;;;;;;;;;;18.11;42.57;100551.22;7281014;19;153529;-50
2022/02/13 06:22:48;;;;;;;;;;;;;;;18.09;42.97;100551.53;7279957;19;153448;-50
2022/02/13 06:25:15;;;;;;;;;;;;;;;18.04;42.61;100548.78;7279808;19;152287;-50
2022/02/13 06:27:42;;;;;;;;;;;;;;;18.05;42.84;100544.03;7282622;19;153164;-50
2022/02/13 06:30:10;;;;;;;;;;;;;;;18.06;42.83;100538.16;7279986;19;153917;-50
2022/02/13 06:32:37;;;;;;;;;;;;;;;18.06;42.79;100535.38;7287547;19;152203;-49
2022/02/13 06:35:04;;;;;;;;;;;;;;;18.11;42.91;100518.53;7279949;19;153912;-49
2022/02/13 06:37:31;;;;;;;;;;;;;;;18.15;42.88;100507.56;7281809;19;152143;-49
2022/02/13 06:39:58;;;;;;;;;;;;;;;18.16;43.07;100501.66;7281096;19;152816;-50
2022/02/13 06:42:27;;;;;;;;;;;;;;;18.20;43.26;100485.94;7277285;19;153730;-50
2022/02/13 06:44:54;;;;;;;;;;;;;;;18.25;43.42;100484.19;7278118;19;151981;-50
2022/02/13 06:47:21;;;;;;;;;;;;;;;18.29;43.43;100471.25;7277062;19;152807;-50
2022/02/13 06:49:48;;;;;;;;;;;;;;;18.34;43.41;100465.59;7275581;19;154253;-50
2022/02/13 06:52:15;;;;;;;;;;;;;;;18.38;43.76;100453.47;7279193;19;152804;-50
2022/02/13 06:54:42;;;;;;;;;;;;;;;18.44;43.90;100463.44;7286841;19;153655;-50
2022/02/13 06:57:09;;;;;;;;;;;;;;;18.49;43.75;100468.09;7279010;19;151753;-51
2022/02/13 06:59:36;;;;;;;;;;;;;;;18.54;44.09;100457.69;7279975;19;153615;-49
2022/02/13 07:02:03;;;;;;;;;;;;;;;18.60;43.83;100439.69;7279449;19;153979;-49
2022/02/13 07:04:30;;;;;;;;;;;;;;;18.65;43.75;100436.81;7278054;19;151640;-50
2022/02/13 07:07:00;;;;;;;;;;;;;;;18.73;43.78;100440.84;7279927;19;153554;-50
2022/02/13 07:09:28;;;;;;;;;;;;;;;18.79;43.71;100425.63;7275358;19;154059;-50
2022/02/13 07:11:55;;;;;;;;;;;;;;;18.85;43.90;100420.75;7286474;19;152237;-50
2022/02/13 07:14:22;;;;;;;;;;;;;;;18.90;43.41;100415.88;7288178;19;152683;-50
2022/02/13 07:16:50;;;;;;;;;;;;;;;18.96;43.21;100419.41;7291564;19;154106;-50
2022/02/13 07:19:17;;;;;;;;;;;;;;;19.02;43.44;100412.56;7285724;19;153555;-50
2022/02/13 07:21:44;;;;;;;;;;;;;;;19.07;43.04;100421.69;7285843;19;154384;-50
2022/02/13 07:24:16;;;;;;;;;;;;;;;19.13;42.93;100424.38;7286606;19;152202;-50
2022/02/13 07:26:43;;;;;;;;;;;;;;;19.20;42.77;100419.19;7284967;19;153156;-50
2022/02/13 07:29:10;;;;;;;;;;;;;;;19.26;42.66;100420.75;7285197;19;153372;-50
2022/02/13 07:31:37;;;;;;;;;;;;;;;19.30;42.44;100410.59;7286691;19;151813;-50
2022/02/13 07:34:05;;;;;;;;;;;;;;;19.36;42.77;100393.34;7287293;19;152832;-50
2022/02/13 07:36:33;;;;;;;;;;;;;;;19.41;42.59;100400.81;7281979;19;154397;-50
2022/02/13 07:39:00;;;;;;;;;;;;;;;19.47;42.86;100385.56;7291352;19;151731;-50
2022/02/13 07:41:27;;;;;;;;;;;;;;;19.52;42.34;100379.84;7284245;19;154154;-50
2022/02/13 07:43:55;;;;;;;;;;;;;;;19.57;42.16;100392.91;7286131;19;151849;-50
2022/02/13 07:46:23;;;;;;;;;;;;;;;19.61;42.47;100389.16;7285218;19;154125;-50
2022/02/13 07:48:50;;;;;;;;;;;;;;;19.68;41.85;100394.31;7280479;19;153345;-50
2022/02/13 07:51:17;;;;;;;;;;;;;;;19.73;42.13;100389.44;7286473;19;151942;-50
2022/02/13 07:53:45;;;;;;;;;;;;;;;19.77;42.32;100368.03;7286309;19;153266;-50
2022/02/13 07:56:12;;;;;;;;;;;;;;;19.82;41.94;100361.47;7283267;19;153614;-50
2022/02/13 07:58:39;;;;;;;;;;;;;;;19.87;42.11;100366.94;7285832;19;152082;-50
2022/02/13 08:01:07;;;;;;;;;;;;;;;19.91;42.06;100365.16;7288658;19;153325;-51
2022/02/13 08:03:35;;;;;;;;;;;;;;;19.95;41.73;100354.97;7286382;19;152563;-50
2022/02/13 08:06:03;;;;;;;;;;;;;;;20.00;41.43;100357.66;7282893;19;152831;-50
2022/02/13 08:08:30;;;;;;;;;;;;;;;20.05;41.77;100349.09;7275387;19;153625;-50
2022/02/13 08:10:57;;;;;;;;;;;;;;;20.10;41.09;100339.75;7285214;19;152601;-60
2022/02/13 08:13:25;;;;;;;;;;;;;;;20.14;41.49;100326.72;7285513;19;152888;-61
2022/02/13 08:15:53;;;;;;;;;;;;;;;20.17;41.44;100326.09;7284093;19;153305;-50
2022/02/13 08:18:20;;;;;;;;;;;;;;;20.20;40.90;100328.25;7282752;19;152127;-49
2022/02/13 08:20:47;;;;;;;;;;;;;;;20.23;40.99;100319.19;7283870;19;153035;-50
2022/02/13 08:23:14;;;;;;;;;;;;;;;20.25;40.84;100309.31;7289187;19;152264;-50
2022/02/13 08:25:42;;;;;;;;;;;;;;;20.28;41.12;100299.41;7284015;19;153089;-50
2022/02/13 08:28:11;;;;;;;;;;;;;;;20.31;41.12;100296.00;7281792;19;152817;-50
2022/02/13 08:30:40;;;;;;;;;;;;;;;20.32;40.98;100306.91;7285018;19;151625;-49
2022/02/13 08:33:08;;;;;;;;;;;;;;;20.33;40.76;100302.94;7285301;19;152675;-50
2022/02/13 08:35:35;;;;;;;;;;;;;;;20.35;40.87;100299.81;7281807;19;154259;-51
2022/02/13 08:38:04;;;;;;;;;;;;;;;20.37;40.71;100289.09;7282497;19;152470;-49
2022/02/13 08:40:31;;;;;;;;;;;;;;;20.38;40.54;100302.81;7284750;19;153204;-50
2022/02/13 08:42:59;;;;;;;;;;;;;;;20.38;40.67;100288.78;7291264;19;153739;-50
2022/02/13 08:45:27;;;;;;;;;;;;;;;20.40;40.08;100291.25;7284253;19;153761;-50
2022/02/13 08:47:54;;;;;;;;;;;;;;;20.40;40.11;100296.84;7279863;19;154355;-50
2022/02/13 08:50:22;;;;;;;;;;;;;;;20.38;40.11;100283.16;7280903;19;151836;-50
2022/02/13 08:52:49;;;;;;;;;;;;;;;20.39;40.23;100289.59;7283588;19;153779;-50
2022/02/13 08:55:17;;;;;;;;;;;;;;;20.38;40.33;100290.75;7282989;19;154283;-49
2022/02/13 08:57:45;;;;;;;;;;;;;;;20.38;39.96;100277.56;7282023;19;152604;-50
2022/02/13 09:00:13;;;;;;;;;;;;;;;20.38;40.26;100265.50;7284007;19;153149;-49
2022/02/13 09:02:41;;;;;;;;;;;;;;;20.36;40.25;100263.00;7281980;19;154261;-50
2022/02/13 09:05:09;;;;;;;;;;;;;;;20.36;40.23;100248.16;7289977;19;151804;-49
2022/02/13 09:07:38;;;;;;;;;;;;;;;20.34;40.17;100244.84;7283130;19;152895;-50
2022/02/13 09:10:06;;;;;;;;;;;;;;;20.33;40.03;100224.38;7279837;19;151754;-51
2022/02/13 09:12:33;;;;;;;;;;;;;;;20.31;40.34;100225.84;7284094;19;152705;-51
2022/02/13 09:15:01;;;;;;;;;;;;;;;20.30;40.15;100207.38;7282644;19;153383;-50
2022/02/13 09:17:28;;;;;;;;;;;;;;;20.29;40.12;100225.34;7278818;19;152083;-50
2022/02/13 09:19:55;;;;;;;;;;;;;;;20.26;40.38;100200.75;7282808;19;153273;-50
2022/02/13 09:22:22;;;;;;;;;;;;;;;20.25;40.55;100202.72;7280557;19;153618;-49
2022/02/13 09:24:49;;;;;;;;;;;;;;;20.24;40.43;100195.44;7284639;19;152118;-50
2022/02/13 09:27:21;;;;;;;;;;;;;;;20.22;40.70;100196.91;7290094;19;153639;-49
2022/02/13 09:29:48;;;;;;;;;;;;;;;20.21;40.48;100190.50;7282172;19;152526;-50
2022/02/13 09:32:15;;;;;;;;;;;;;;;20.19;40.54;100184.38;7284247;19;153603;-50
2022/02/13 09:34:43;;;;;;;;;;;;;;;20.17;40.46;100177.44;7281408;19;154323;-49
2022/02/13 09:37:10;;;;;;;;;;;;;;;20.16;40.74;100184.19;7281706;19;152652;-50
2022/02/13 09:39:37;;;;;;;;;;;;;;;20.14;40.82;100180.88;7283080;19;153215;-50
2022/02/13 09:42:05;;;;;;;;;;;;;;;20.11;40.98;100173.97;7281021;19;154261;-51
2022/02/13 09:44:33;;;;;;;;;;;;;;;20.10;40.65;100163.06;7280751;19;151683;-50
2022/02/13 09:47:01;;;;;;;;;;;;;;;20.07;40.83;100163.72;7280864;19;153324;-50
2022/02/13 09:49:28;;;;;;;;;;;;;;;20.05;40.96;100189.25;7285737;19;152863;-51
2022/02/13 09:51:56;;;;;;;;;;;;;;;20.03;40.97;100157.94;7279373;19;152911;-50
2022/02/13 09:54:23;;;;;;;;;;;;;;;20.01;41.41;100170.59;7281108;19;153903;-50
2022/02/13 09:57:59;;;;;;;;;;;;;;;19.99;41.33;100163.34;7280869;19;151967;-49
2022/02/13 09:59:40;;;;;;;;;;;;;;;19.97;41.17;100168.47;7280693;19;152803;-50
2022/02/13 10:02:27;;;;;;;;;;;;;;;19.95;41.37;100144.69;7280411;19;154194;-51
2022/02/13 10:04:54;;;;;;;;;;;;;;;19.92;41.44;100134.97;7280225;19;152414;-50
2022/02/13 10:07:23;;;;;;;;;;;;;;;19.91;41.32;100127.69;7282620;19;153333;-50
2022/02/13 10:09:53;;;;;;;;;;;;;;;19.88;41.55;100125.56;7278972;19;153973;-50
2022/02/13 10:12:24;;;;;;;;;;;;;;;19.86;41.58;100113.00;7289204;19;151773;-50
2022/02/13 10:14:51;;;;;;;;;;;;;;;19.84;41.74;100099.31;7281342;19;153617;-50
2022/02/13 10:17:18;;;;;;;;;;;;;;;19.83;41.70;100094.84;7279998;19;152120;-51
2022/02/13 10:19:51;;;;;;;;;;;;;;;19.83;41.95;100091.22;7279161;19;152468;-51
2022/02/13 10:22:33;;;;;;;;;;;;;;;19.79;41.58;100079.84;7280410;19;154007;-50
2022/02/13 10:25:03;;;;;;;;;;;;;;;19.77;41.88;100070.91;7281650;19;151721;-49
2022/02/13 10:27:43;;;;;;;;;;;;;;;19.75;41.35;100066.78;7283286;19;153038;-50
2022/02/13 10:30:10;;;;;;;;;;;;;;;19.74;41.28;100062.34;7278914;19;153357;-50
2022/02/13 10:32:41;;;;;;;;;;;;;;;19.71;41.19;100057.41;7288056;19;152377;-49
2022/02/13 10:35:11;;;;;;;;;;;;;;;19.72;41.39;100061.81;7278589;19;153634;-50
2022/02/13 10:37:39;;;;;;;;;;;;;;;19.72;41.33;100057.03;7276300;19;151997;-51
2022/02/13 10:40:08;;;;;;;;;;;;;;;19.72;41.04;100050.63;7276788;19;151975;-50
2022/02/13 10:42:35;;;;;;;;;;;;;;;19.74;41.27;100057.56;7279941;19;152603;-50
2022/02/13 10:45:05;;;;;;;;;;;;;;;19.74;40.91;100032.34;7282655;19;151640;-50
2022/02/13 10:47:34;;;;;;;;;;;;;;;19.78;41.08;100027.72;7288017;19;152992;-50
2022/02/13 10:50:01;;;;;;;;;;;;;;;19.61;39.92;100010.88;7284986;19;154434;-51
2022/02/13 10:52:29;;;;;;;;;;;;;;;19.73;40.05;100015.84;7282319;19;152380;-50
2022/02/13 10:54:59;;;;;;;;;;;;;;;19.78;39.56;100002.50;7292746;19;152295;-49
2022/02/13 10:57:26;;;;;;;;;;;;;;;19.82;39.41;100011.06;7283631;19;152459;-49
2022/02/13 10:59:53;;;;;;;;;;;;;;;19.84;39.01;100009.63;7284644;19;154914;-50
2022/02/13 11:02:23;;;;;;;;;;;;;;;19.88;38.95;99998.56;7287587;19;153574;-51
2022/02/13 11:04:52;;;;;;;;;;;;;;;19.90;38.99;99999.88;7288736;19;152078;-50
2022/02/13 11:07:19;;;;;;;;;;;;;;;19.93;38.79;99999.25;7288460;19;153668;-50
2022/02/13 11:09:47;;;;;;;;;;;;;;;19.97;38.76;99991.81;7280859;19;154312;-50
2022/02/13 11:12:17;;;;;;;;;;;;;;;20.00;39.09;99979.13;7284779;19;152137;-50
2022/02/13 11:14:47;;;;;;;;;;;;;;;20.05;38.94;99978.13;7286026;19;153570;-50
2022/02/13 11:17:17;;;;;;;;;;;;;;;20.09;39.04;99970.69;7293528;19;153484;-50
2022/02/13 11:19:45;;;;;;;;;;;;;;;20.11;39.07;99972.03;7280120;19;152774;-49
2022/02/13 11:22:15;;;;;;;;;;;;;;;20.15;39.15;99961.81;7286211;19;153435;-50
2022/02/13 11:24:47;;;;;;;;;;;;;;;20.19;38.75;99961.97;7287120;19;151967;-50
2022/02/13 11:27:17;;;;;;;;;;;;;;;20.24;38.78;99951.41;7284832;19;152515;-50
2022/02/13 11:29:47;;;;;;;;;;;;;;;20.26;38.73;99940.66;7282617;19;154387;-51
2022/02/13 11:32:31;;;;;;;;;;;;;;;20.31;39.00;99940.53;7288009;19;152009;-50
2022/02/13 11:34:58;;;;;;;;;;;;;;;20.36;38.76;99945.16;7284840;19;153900;-49
2022/02/13 11:37:38;;;;;;;;;;;;;;;20.40;38.80;99935.75;7283002;19;154149;-50
2022/02/13 11:40:05;;;;;;;;;;;;;;;20.44;38.61;99921.91;7294528;19;151835;-50
2022/02/13 11:42:37;;;;;;;;;;;;;;;20.47;38.61;99897.94;7287053;19;153458;-50
2022/02/13 11:45:07;;;;;;;;;;;;;;;20.50;38.44;99892.47;7287216;19;151683;-50
2022/02/13 11:47:35;;;;;;;;;;;;;;;20.54;38.26;99892.63;7284999;19;153142;-50
2022/02/13 11:50:05;;;;;;;;;;;;;;;20.55;38.31;99877.44;7284534;19;153605;-51
2022/02/13 11:52:33;;;;;;;;;;;;;;;20.58;38.21;99865.56;7282391;19;152251;-52
2022/02/13 11:55:03;;;;;;;;;;;;;;;20.59;38.01;99858.78;7284220;19;153488;-50
2022/02/13 11:57:33;;;;;;;;;;;;;;;20.63;38.23;99848.53;7280242;19;154471;-50
2022/02/13 12:00:03;;;;;;;;;;;;;;;20.64;37.87;99847.38;7284624;19;151987;-50
2022/02/13 12:02:30;;;;;;;;;;;;;;;20.64;38.20;99841.75;7293176;19;153004;-50
2022/02/13 12:05:01;;;;;;;;;;;;;;;20.65;38.10;99837.81;7285919;19;151582;-50
2022/02/13 12:07:32;;;;;;;;;;;;;;;20.65;37.85;99838.63;7284661;19;153917;-50
2022/02/13 12:10:01;;;;;;;;;;;;;;;20.64;37.93;99828.56;7282891;19;154237;-62
2022/02/13 12:12:29;;;;;;;;;;;;;;;20.63;37.63;99810.06;7283694;19;151958;-50
2022/02/13 12:14:57;;;;;;;;;;;;;;;20.64;37.88;99814.53;7283062;19;153252;-50
2022/02/13 12:17:25;;;;;;;;;;;;;;;20.62;37.89;99816.84;7284467;19;153737;-52
2022/02/13 12:19:55;;;;;;;;;;;;;;;20.62;37.88;99804.81;7283812;19;151591;-50
2022/02/13 12:22:22;;;;;;;;;;;;;;;20.59;37.69;99794.22;7285169;19;153090;-49
2022/02/13 12:24:51;;;;;;;;;;;;;;;20.58;37.62;99787.78;7289966;19;153788;-49
2022/02/13 12:27:21;;;;;;;;;;;;;;;20.57;37.83;99769.34;7285827;19;152945;-50
2022/02/13 12:29:52;;;;;;;;;;;;;;;20.56;37.60;99764.88;7281057;19;152957;-50
2022/02/13 12:32:24;;;;;;;;;;;;;;;20.54;37.67;99760.75;7285534;19;152207;-50